createdAt,value
2023-01-29T00:02:55.548Z,94.34
2023-01-29T00:05:58.940Z,94.51
2023-01-29T00:09:01.637Z,95.21
2023-01-29T00:12:11.096Z,97.04
2023-01-29T00:15:13.729Z,97.23
2023-01-29T00:18:16.960Z,97.54
2023-01-29T00:21:25.001Z,97.56
2023-01-29T00:24:27.907Z,97.44
2023-01-29T00:27:33.287Z,96.75
2023-01-29T00:30:37.805Z,96.27
2023-01-29T00:33:44.395Z,95.95
2023-01-29T00:36:50.549Z,95.69
2023-01-29T00:39:55.775Z,95.51
2023-01-29T00:43:17.748Z,95.13
2023-01-29T00:46:21.897Z,94.28
2023-01-29T00:49:27.724Z,93.87
2023-01-29T00:52:32.748Z,94.83
2023-01-29T00:55:37.732Z,94.95
2023-01-29T00:58:40.591Z,95.14
2023-01-29T01:02:05.362Z,95.40
2023-01-29T01:05:14.302Z,95.79
2023-01-29T01:08:38.165Z,95.57
2023-01-29T01:11:43.339Z,95.96
2023-01-29T01:14:47.064Z,95.67
2023-01-29T01:17:59.090Z,96.06
2023-01-29T01:21:02.274Z,96.61
2023-01-29T01:24:05.942Z,97.74
2023-01-29T01:27:11.673Z,98.22
2023-01-29T01:30:16.735Z,98.91
2023-01-29T01:33:20.476Z,99.79
2023-01-29T01:36:23.332Z,100.00
2023-01-29T01:39:29.001Z,100.00
2023-01-29T01:42:35.282Z,100.00
2023-01-29T01:45:39.652Z,100.00
2023-01-29T01:48:43.748Z,100.00
2023-01-29T01:51:50.988Z,100.00
2023-01-29T01:54:55.227Z,100.00
2023-01-29T01:58:06.952Z,100.00
2023-01-29T02:01:12.795Z,100.00
2023-01-29T02:04:41.567Z,100.00
2023-01-29T02:08:06.607Z,100.00
2023-01-29T02:11:10.115Z,100.00
2023-01-29T02:14:13.032Z,100.00
2023-01-29T02:17:20.422Z,100.00
2023-01-29T02:20:30.139Z,100.00
2023-01-29T02:23:39.593Z,100.00
2023-01-29T02:27:15.315Z,100.00
2023-01-29T02:30:38.719Z,100.00
2023-01-29T02:33:55.806Z,100.00
2023-01-29T02:37:09.783Z,100.00
2023-01-29T02:40:35.226Z,100.00
2023-01-29T02:43:57.187Z,100.00
2023-01-29T02:47:15.121Z,100.00
2023-01-29T02:50:38.723Z,100.00
2023-01-29T02:53:59.794Z,100.00
2023-01-29T02:57:29.259Z,100.00
2023-01-29T03:00:40.396Z,100.00
2023-01-29T03:03:47.993Z,100.00
2023-01-29T03:07:06.713Z,100.00
2023-01-29T03:10:28.059Z,100.00
2023-01-29T03:13:40.420Z,100.00
2023-01-29T03:16:52.300Z,100.00
2023-01-29T03:19:57.048Z,100.00
2023-01-29T03:23:11.579Z,100.00
2023-01-29T03:26:40.650Z,100.00
2023-01-29T03:30:06.979Z,100.00
2023-01-29T03:33:20.979Z,100.00
2023-01-29T03:36:38.268Z,100.00
2023-01-29T03:39:42.467Z,100.00
2023-01-29T03:43:04.039Z,100.00
2023-01-29T03:46:19.103Z,100.00
2023-01-29T03:49:28.259Z,100.00
2023-01-29T03:52:45.428Z,100.00
2023-01-29T03:56:01.363Z,100.00
2023-01-29T03:59:16.712Z,100.00
2023-01-29T04:02:33.330Z,100.00
2023-01-29T04:05:51.814Z,100.00
2023-01-29T04:09:01.610Z,100.00
2023-01-29T04:12:14.151Z,100.00
2023-01-29T04:15:19.801Z,100.00
2023-01-29T04:18:26.283Z,100.00
2023-01-29T04:21:32.113Z,100.00
2023-01-29T04:24:35.627Z,100.00
2023-01-29T04:27:52.324Z,100.00
2023-01-29T04:30:58.507Z,100.00
2023-01-29T04:34:37.930Z,100.00
2023-01-29T04:37:46.116Z,100.00
2023-01-29T04:40:51.589Z,100.00
2023-01-29T04:44:18.663Z,100.00
2023-01-29T04:47:30.368Z,100.00
2023-01-29T04:50:46.884Z,100.00
2023-01-29T04:53:50.890Z,100.00
2023-01-29T04:57:14.904Z,100.00
2023-01-29T05:00:39.244Z,100.00
2023-01-29T05:03:46.989Z,100.00
2023-01-29T05:06:50.972Z,100.00
2023-01-29T05:09:59.149Z,100.00
2023-01-29T05:13:07.670Z,100.00
2023-01-29T05:16:23.999Z,100.00
2023-01-29T05:19:28.169Z,100.00
2023-01-29T05:22:32.225Z,100.00
2023-01-29T05:25:37.760Z,100.00
2023-01-29T05:28:41.197Z,100.00
2023-01-29T05:31:44.775Z,100.00
2023-01-29T05:34:48.362Z,100.00
2023-01-29T05:37:55.651Z,100.00
2023-01-29T05:41:00.111Z,100.00
2023-01-29T05:44:02.964Z,100.00
2023-01-29T05:47:09.447Z,100.00
2023-01-29T05:50:13.181Z,100.00
2023-01-29T05:53:15.975Z,100.00
2023-01-29T05:56:39.636Z,100.00
2023-01-29T05:59:42.793Z,100.00
2023-01-29T06:02:47.632Z,100.00
2023-01-29T06:05:50.551Z,100.00
2023-01-29T06:08:53.208Z,100.00
2023-01-29T06:12:01.146Z,100.00
2023-01-29T06:15:06.040Z,100.00
2023-01-29T06:18:08.954Z,100.00
2023-01-29T06:21:13.694Z,99.33
2023-01-29T06:24:19.085Z,98.40
2023-01-29T06:27:21.680Z,98.07
2023-01-29T06:30:24.842Z,97.66
2023-01-29T06:33:27.682Z,97.23
2023-01-29T06:36:30.841Z,97.16
2023-01-29T06:39:35.243Z,95.11
2023-01-29T06:42:40.852Z,94.86
2023-01-29T06:45:51.026Z,94.42
2023-01-29T06:48:54.536Z,93.96
2023-01-29T06:51:57.709Z,93.51
2023-01-29T06:55:04.093Z,93.77
2023-01-29T06:58:09.195Z,93.47
2023-01-29T07:01:29.305Z,93.72
2023-01-29T07:04:50.164Z,92.80
2023-01-29T07:07:55.369Z,93.11
2023-01-29T07:11:01.929Z,91.91
2023-01-29T07:14:07.761Z,91.74
2023-01-29T07:17:13.467Z,92.45
2023-01-29T07:20:17.265Z,92.00
2023-01-29T07:23:20.011Z,92.32
2023-01-29T07:26:26.065Z,92.08
2023-01-29T07:29:28.663Z,91.44
2023-01-29T07:32:33.909Z,91.71
2023-01-29T07:35:42.846Z,91.44
2023-01-29T07:38:50.584Z,91.85
2023-01-29T07:41:53.565Z,91.38
2023-01-29T07:45:00.493Z,91.48
2023-01-29T07:48:05.251Z,90.05
2023-01-29T07:51:08.547Z,90.40
2023-01-29T07:54:18.378Z,90.07
2023-01-29T07:57:25.614Z,89.95
2023-01-29T08:00:29.984Z,89.56
2023-01-29T08:03:33.293Z,89.67
2023-01-29T08:06:36.178Z,89.11
2023-01-29T08:09:39.145Z,88.58
2023-01-29T08:12:41.700Z,87.95
2023-01-29T08:15:45.653Z,88.69
2023-01-29T08:18:50.461Z,87.93
2023-01-29T08:21:53.384Z,87.51
2023-01-29T08:25:06.463Z,88.69
2023-01-29T08:28:12.640Z,87.88
2023-01-29T08:34:25.771Z,86.99
2023-01-29T08:37:30.962Z,86.59
2023-01-29T08:40:36.284Z,87.06
2023-01-29T08:43:38.910Z,87.41
2023-01-29T08:46:44.104Z,86.63
2023-01-29T08:49:47.984Z,86.36
2023-01-29T08:52:59.097Z,85.69
2023-01-29T08:56:07.082Z,85.55
2023-01-29T08:59:11.028Z,86.06
2023-01-29T09:02:16.075Z,85.03
2023-01-29T09:05:21.309Z,84.82
2023-01-29T09:08:23.943Z,84.69
2023-01-29T09:11:27.153Z,84.02
2023-01-29T09:14:29.678Z,85.02
2023-01-29T09:17:37.814Z,85.25
2023-01-29T09:20:42.655Z,84.77
2023-01-29T09:23:46.896Z,83.40
2023-01-29T09:26:52.288Z,82.73
2023-01-29T09:29:55.847Z,82.88
2023-01-29T09:33:00.827Z,82.92
2023-01-29T09:36:05.225Z,83.62
2023-01-29T09:39:10.052Z,82.42
2023-01-29T09:42:29.262Z,82.54
2023-01-29T09:45:32.418Z,82.14
2023-01-29T09:48:38.764Z,81.99
2023-01-29T09:51:44.825Z,81.40
2023-01-29T09:55:10.763Z,80.75
2023-01-29T09:58:21.990Z,80.69
2023-01-29T10:01:43.612Z,82.04
2023-01-29T10:05:02.944Z,81.40
2023-01-29T10:08:07.871Z,80.43
2023-01-29T10:11:39.984Z,79.71
2023-01-29T10:14:50.660Z,78.98
2023-01-29T10:18:14.674Z,77.90
2023-01-29T10:21:32.856Z,79.01
2023-01-29T10:24:39.153Z,78.46
2023-01-29T10:27:48.884Z,78.71
2023-01-29T10:31:00.487Z,78.96
2023-01-29T10:34:17.403Z,78.94
2023-01-29T10:37:31.100Z,79.58
2023-01-29T10:41:12.865Z,78.79
2023-01-29T10:44:33.544Z,79.29
2023-01-29T10:47:41.940Z,78.23
2023-01-29T10:51:36.474Z,77.71
2023-01-29T10:54:57.936Z,77.55
2023-01-29T10:58:30.240Z,78.32
2023-01-29T11:01:33.107Z,78.36
2023-01-29T11:04:39.684Z,78.92
2023-01-29T11:07:42.541Z,77.56
2023-01-29T11:10:53.434Z,77.26
2023-01-29T11:14:10.853Z,78.92
2023-01-29T11:17:25.403Z,77.47
2023-01-29T11:20:29.870Z,77.40
2023-01-29T11:23:34.399Z,76.88
2023-01-29T11:26:40.477Z,77.85
2023-01-29T11:29:48.260Z,77.90
2023-01-29T11:33:24.015Z,76.51
2023-01-29T11:36:39.959Z,76.49
2023-01-29T11:39:50.863Z,74.75
2023-01-29T11:42:56.356Z,75.79
2023-01-29T11:46:05.716Z,75.35
2023-01-29T11:49:27.270Z,76.12
2023-01-29T11:52:42.094Z,74.46
2023-01-29T11:55:50.847Z,73.57
2023-01-29T11:58:58.544Z,74.25
2023-01-29T12:02:22.326Z,74.48
2023-01-29T12:05:26.974Z,74.56
2023-01-29T12:08:38.131Z,72.43
2023-01-29T12:11:41.409Z,72.37
2023-01-29T12:14:45.270Z,72.22
2023-01-29T12:17:58.398Z,71.14
2023-01-29T12:21:06.173Z,70.84
2023-01-29T12:24:23.197Z,71.76
2023-01-29T12:27:44.005Z,72.29
2023-01-29T12:31:19.170Z,71.54
2023-01-29T12:34:46.261Z,70.79
2023-01-29T12:37:57.764Z,70.71
2023-01-29T12:41:17.637Z,71.43
2023-01-29T12:45:01.084Z,70.73
2023-01-29T12:48:14.744Z,70.59
2023-01-29T12:51:28.496Z,69.43
2023-01-29T12:54:50.894Z,69.54
2023-01-29T12:58:00.511Z,69.08
2023-01-29T13:01:13.027Z,68.36
2023-01-29T13:04:36.730Z,68.68
2023-01-29T13:07:47.594Z,67.24
2023-01-29T13:10:54.086Z,66.10
2023-01-29T13:14:08.561Z,65.88
2023-01-29T13:17:25.025Z,67.46
2023-01-29T13:20:49.836Z,68.39
2023-01-29T13:23:59.639Z,69.02
2023-01-29T13:27:02.811Z,68.65
2023-01-29T13:30:07.711Z,68.98
2023-01-29T13:33:23.951Z,68.55
2023-01-29T13:36:30.592Z,69.55
2023-01-29T13:39:38.012Z,71.00
2023-01-29T13:42:48.213Z,71.60
2023-01-29T13:45:54.081Z,71.32
2023-01-29T13:49:01.254Z,71.47
2023-01-29T13:52:52.552Z,71.30
2023-01-29T13:55:55.742Z,69.79
2023-01-29T13:59:01.222Z,68.03
2023-01-29T14:02:28.484Z,67.94
2023-01-29T14:05:31.840Z,68.26
2023-01-29T14:08:34.571Z,67.47
2023-01-29T14:11:48.743Z,67.50
2023-01-29T14:15:01.511Z,66.95
2023-01-29T14:18:09.117Z,68.50
2023-01-29T14:21:30.746Z,68.08
2023-01-29T14:24:36.526Z,66.71
2023-01-29T14:28:16.532Z,68.92
2023-01-29T14:32:06.212Z,69.43
2023-01-29T14:35:34.495Z,69.60
2023-01-29T14:38:42.788Z,71.52
2023-01-29T14:42:22.555Z,72.38
2023-01-29T14:45:46.307Z,71.98
2023-01-29T14:48:52.330Z,73.04
2023-01-29T14:51:57.133Z,72.82
2023-01-29T14:55:05.261Z,73.50
2023-01-29T14:58:17.186Z,75.17
2023-01-29T15:01:43.766Z,75.30
2023-01-29T15:04:55.565Z,74.94
2023-01-29T15:08:04.445Z,75.86
2023-01-29T15:11:33.886Z,76.41
2023-01-29T15:14:44.528Z,76.70
2023-01-29T15:18:05.366Z,76.65
2023-01-29T15:21:19.678Z,76.00
2023-01-29T15:24:27.157Z,76.73
2023-01-29T15:27:35.356Z,76.89
2023-01-29T15:30:39.184Z,76.58
2023-01-29T15:33:47.496Z,77.30
2023-01-29T15:36:53.327Z,77.46
2023-01-29T15:39:56.660Z,78.60
2023-01-29T15:43:00.996Z,78.74
2023-01-29T15:46:19.476Z,79.51
2023-01-29T15:49:32.516Z,78.39
2023-01-29T15:52:39.623Z,79.54
2023-01-29T15:55:46.496Z,79.97
2023-01-29T15:58:55.159Z,80.60
2023-01-29T16:02:42.434Z,81.32
2023-01-29T16:05:48.427Z,82.07
2023-01-29T16:09:23.690Z,82.52
2023-01-29T16:12:52.222Z,82.59
2023-01-29T16:16:00.738Z,81.88
2023-01-29T16:19:22.108Z,82.23
2023-01-29T16:22:37.095Z,82.85
2023-01-29T16:25:44.871Z,82.98
2023-01-29T16:28:52.584Z,82.25
2023-01-29T16:32:39.779Z,82.77
2023-01-29T16:36:11.819Z,82.72
2023-01-29T16:39:45.303Z,83.10
2023-01-29T16:42:51.010Z,83.85
2023-01-29T16:46:25.399Z,83.86
2023-01-29T16:49:28.654Z,83.69
2023-01-29T16:52:36.482Z,83.67
2023-01-29T16:55:43.726Z,84.07
2023-01-29T16:58:53.619Z,84.05
2023-01-29T17:02:05.395Z,83.17
2023-01-29T17:05:22.460Z,83.26
2023-01-29T17:09:06.709Z,82.76
2023-01-29T17:12:22.283Z,82.79
2023-01-29T17:15:43.051Z,83.54
2023-01-29T17:18:49.951Z,83.83
2023-01-29T17:21:53.626Z,83.87
2023-01-29T17:24:57.396Z,84.08
2023-01-29T17:28:03.149Z,84.40
2023-01-29T17:31:29.713Z,84.02
2023-01-29T17:34:36.051Z,83.97
2023-01-29T17:37:41.839Z,84.50
2023-01-29T17:40:57.209Z,84.54
2023-01-29T17:44:01.182Z,84.36
2023-01-29T17:47:05.523Z,84.15
2023-01-29T17:50:36.268Z,84.54
2023-01-29T17:53:46.075Z,84.17
2023-01-29T17:56:58.151Z,83.09
2023-01-29T18:00:02.549Z,83.67
2023-01-29T18:03:11.803Z,83.74
2023-01-29T18:06:28.489Z,83.83
2023-01-29T18:09:32.038Z,83.62
2023-01-29T18:12:36.256Z,84.25
2023-01-29T18:15:40.746Z,84.48
2023-01-29T18:18:51.527Z,84.41
2023-01-29T18:21:54.981Z,84.51
2023-01-29T18:25:00.707Z,84.10
2023-01-29T18:28:07.338Z,84.37
2023-01-29T18:31:12.387Z,84.70
2023-01-29T18:34:19.350Z,84.97
2023-01-29T18:37:30.049Z,86.50
2023-01-29T18:41:02.061Z,86.27
2023-01-29T18:44:30.183Z,86.67
2023-01-29T18:47:37.568Z,86.93
2023-01-29T18:50:41.252Z,86.33
2023-01-29T18:53:46.519Z,86.66
2023-01-29T18:57:13.027Z,86.68
2023-01-29T19:00:16.729Z,86.51
2023-01-29T19:03:24.650Z,86.52
2023-01-29T19:06:27.562Z,87.12
2023-01-29T19:09:30.936Z,86.55
2023-01-29T19:12:34.418Z,86.79
2023-01-29T19:15:43.282Z,87.42
2023-01-29T19:18:46.809Z,87.73
2023-01-29T19:21:53.925Z,87.83
2023-01-29T19:24:58.996Z,87.80
2023-01-29T19:28:02.624Z,87.73
2023-01-29T19:31:05.991Z,87.98
2023-01-29T19:34:11.357Z,87.82
2023-01-29T19:37:19.196Z,88.39
2023-01-29T19:40:24.863Z,88.29
2023-01-29T19:43:32.404Z,88.39
2023-01-29T19:46:35.704Z,88.81
2023-01-29T19:49:40.434Z,88.99
2023-01-29T19:52:51.505Z,88.98
2023-01-29T19:56:07.232Z,88.71
2023-01-29T19:59:11.361Z,89.26
2023-01-29T20:02:15.238Z,89.11
2023-01-29T20:05:19.573Z,88.85
2023-01-29T20:08:23.905Z,89.18
2023-01-29T20:11:29.556Z,89.15
2023-01-29T20:14:34.442Z,89.06
2023-01-29T20:17:38.056Z,89.68
2023-01-29T20:20:47.427Z,90.00
2023-01-29T20:23:51.816Z,90.19
2023-01-29T20:26:55.031Z,90.43
2023-01-29T20:29:59.907Z,90.37
2023-01-29T20:33:06.045Z,90.27
2023-01-29T20:36:13.291Z,90.16
2023-01-29T20:39:18.853Z,90.34
2023-01-29T20:42:22.270Z,89.88
2023-01-29T20:45:28.519Z,90.25
2023-01-29T20:48:33.247Z,90.22
2023-01-29T20:51:38.343Z,90.41
2023-01-29T20:54:45.614Z,91.05
2023-01-29T20:58:05.636Z,90.86
2023-01-29T21:01:12.740Z,90.68
2023-01-29T21:04:18.171Z,90.24
2023-01-29T21:07:21.276Z,90.59
2023-01-29T21:10:25.233Z,90.46
2023-01-29T21:13:31.024Z,90.53
2023-01-29T21:16:36.098Z,90.29
2023-01-29T21:19:39.105Z,90.07
2023-01-29T21:22:44.395Z,90.13
2023-01-29T21:26:07.831Z,90.47
2023-01-29T21:29:32.839Z,89.88
2023-01-29T21:32:36.211Z,89.94
2023-01-29T21:35:39.352Z,89.99
2023-01-29T21:38:42.272Z,89.79
2023-01-29T21:42:07.592Z,89.69
2023-01-29T21:45:11.030Z,89.28
2023-01-29T21:48:15.258Z,89.65
2023-01-29T21:51:18.972Z,89.37
2023-01-29T21:54:31.360Z,89.68
2023-01-29T21:57:34.644Z,89.86
2023-01-29T22:00:37.763Z,89.77
2023-01-29T22:03:41.713Z,90.30
2023-01-29T22:10:48.999Z,89.91
2023-01-29T22:13:54.044Z,89.65
2023-01-29T22:16:59.612Z,89.19
2023-01-29T22:20:30.042Z,89.53
2023-01-29T22:23:37.177Z,90.00
2023-01-29T22:26:42.664Z,90.81
2023-01-29T22:29:47.850Z,90.74
2023-01-29T22:32:51.298Z,90.89
2023-01-29T22:35:57.630Z,90.85
2023-01-29T22:39:00.549Z,91.05
2023-01-29T22:42:06.224Z,91.47
2023-01-29T22:45:44.094Z,92.14
2023-01-29T22:49:19.595Z,92.25
2023-01-29T22:52:56.281Z,92.80
2023-01-29T22:56:41.354Z,92.78
2023-01-29T23:00:17.179Z,92.73
2023-01-29T23:03:56.573Z,93.36
2023-01-29T23:07:32.355Z,93.37
2023-01-29T23:11:15.652Z,93.51
2023-01-29T23:14:51.870Z,93.24
2023-01-29T23:18:30.582Z,93.24
2023-01-29T23:22:07.245Z,92.89
2023-01-29T23:26:04.626Z,92.63
2023-01-29T23:29:50.087Z,92.74
2023-01-29T23:33:07.608Z,93.63
2023-01-29T23:36:35.757Z,93.98
2023-01-29T23:40:11.231Z,93.76
2023-01-29T23:43:56.454Z,94.24
2023-01-29T23:47:32.612Z,94.71
2023-01-29T23:50:52.440Z,94.78
2023-01-29T23:54:10.055Z,94.69
2023-01-29T23:57:37.179Z,94.76
